Forum - i mitici sud

tutti gli utenti del gruppo possono partecipare le discussione con riferimento a sesso o non conforme a chatta.it verranno imossi

Amministratore
F.ranco52 27/08/2020 ore 08:59 Quota

(nessuno) Nowcasting Giovedì 27 Agosto 2020

Buongiorno a tutti


Notizie Meteo dell'Italia da il Meteo .It


http://ilMeteo.It


la Situazione Italiana vista dal Sat









il Radar Europeo









Brindisi

METAR LIBR 270550Z AUTO 30004KT 9999 NCD 25/21 Q1013=

METAR di Brindisi del 27 alle 5,50z

Vento da 300° W NW 4 nodi (7,408 km) Visibilità 10000 m
Senza Variazioni di Direzione
Tenp 25°C Dew 21°C Ur 78% hPa 1013

Brindisi

TAF LIBR 270500Z 2706/2806 VRB05KT 9999 FEW030 BECMG 2709/2711 34010KT BECMG 2717/2720 VRB05KT=

le TAF di Brindisi delle 5z Previsioni dalle 6z alle 6z del 28

Vento Variabile 5 nodi (9,26 km) Visibilità 10000 m
Copertura 1-2 ottavi da 3000 piedi (914,4 n)
le Condizioni Diverranno fra le 9z e le 11z
Vento da 340° N NW 10 nodi (18,52 km)
le Condizioni Diverranno fra le 17z e le 20z
Vento Variabile 5 nodi (9,26 km)


Gioia del Colle

METAR LIBV 270555Z 02003KT CAVOK 23/16 Q1014 RMK SKC VIS MIN 9999 WIND THR32 36005KT WIND THR14 02002KT BLU=

METAR di Gioia del Colle del 27 alle 5,55z

Vento da 20° N NE 3 nodi (5,556 km) Visibilità 10000 m
Base delle Nubi e Visibilità OK
Temp 23°C Dew 16°C Ur 64% hPa 1014
Nivolosità a 3-4 ottavi
Visibilità Minima 10000 m

Gioia del Colle

TAF LIBV 270500Z 2706/2715 VRB03KT CAVOK BECMG 2707/2709 35010KT BECMG 2712/2714 05010KT=

le TAF di Gioia del Colle delle 5z Previsioni dalle 6z alle 15z

Vento Variabile 3 nodi (5,556 km) Visibilità 10000 m
Base delle Nubi e Visibilità OK
le Condizioni Diverranno fra le 7z e le 9z
Vento da 350° N NW 10 nodi (18,52 km)
le Condizioni Diverranno fra le 12z e le 14z
Vento da 50° E NE 10 nodi (18,52 km)
2691345
Buongiorno a tutti Notizie Meteo dell'Italia da il Meteo .It http://ilMeteo.It la Situazione Italiana vista dal Sat « immagine »...
Discussione
27/08/2020 08:59:36
none
  • mi piace
    iLikeIt
    PublicVote

Vuoi partecipare anche tu a questa discussione?

Rispondi per lasciare il tuo messaggio in questa discussione